createdAt,value
2023-05-12T00:01:28.720Z,3.23
2023-05-12T00:03:58.331Z,3.90
2023-05-12T00:06:27.369Z,3.23
2023-05-12T00:08:55.862Z,3.77
2023-05-12T00:11:24.785Z,3.97
2023-05-12T00:13:56.122Z,4.30
2023-05-12T00:16:24.558Z,3.37
2023-05-12T00:18:53.434Z,4.27
2023-05-12T00:21:21.900Z,4.07
2023-05-12T00:23:50.395Z,4.27
2023-05-12T00:26:18.859Z,4.13
2023-05-12T00:28:47.672Z,3.50
2023-05-12T00:31:18.492Z,3.57
2023-05-12T00:33:46.856Z,3.93
2023-05-12T00:36:15.332Z,3.53
2023-05-12T00:38:43.793Z,4.50
2023-05-12T00:41:12.311Z,4.60
2023-05-12T00:43:40.742Z,3.67
2023-05-12T00:46:21.042Z,5.77
2023-05-12T00:48:49.789Z,5.30
2023-05-12T00:51:18.467Z,5.50
2023-05-12T00:53:50.302Z,5.00
2023-05-12T00:56:20.295Z,5.30
2023-05-12T00:58:48.942Z,3.90
2023-05-12T01:01:18.883Z,4.17
2023-05-12T01:03:47.383Z,4.30
2023-05-12T01:06:17.797Z,3.47
2023-05-12T01:08:46.299Z,4.03
2023-05-12T01:11:14.713Z,4.43
2023-05-12T01:13:43.104Z,3.47
2023-05-12T01:16:12.049Z,4.00
2023-05-12T01:18:42.263Z,4.00
2023-05-12T01:21:29.260Z,3.23
2023-05-12T01:24:01.060Z,3.77
2023-05-12T01:26:32.580Z,3.03
2023-05-12T01:29:01.998Z,3.17
2023-05-12T01:31:30.828Z,2.83
2023-05-12T01:33:59.357Z,3.30
2023-05-12T01:36:27.690Z,3.53
2023-05-12T01:38:57.240Z,3.53
2023-05-12T01:41:25.785Z,4.23
2023-05-12T01:43:55.482Z,3.60
2023-05-12T01:46:24.589Z,3.00
2023-05-12T01:48:52.974Z,4.03
2023-05-12T01:51:21.684Z,2.70
2023-05-12T01:53:49.984Z,3.50
2023-05-12T01:56:18.646Z,2.90
2023-05-12T01:58:47.209Z,3.97
2023-05-12T02:01:17.202Z,4.03
2023-05-12T02:03:45.636Z,3.50
2023-05-12T02:06:14.981Z,4.83
2023-05-12T02:08:43.395Z,4.50
2023-05-12T02:11:11.714Z,4.63
2023-05-12T02:13:40.125Z,4.70
2023-05-12T02:16:08.878Z,4.37
2023-05-12T02:18:38.908Z,3.83
2023-05-12T02:21:07.536Z,4.00
2023-05-12T02:23:35.816Z,4.70
2023-05-12T02:26:04.106Z,3.40
2023-05-12T02:28:33.441Z,3.90
2023-05-12T02:31:01.929Z,3.90
2023-05-12T02:33:30.399Z,3.90
2023-05-12T02:36:00.408Z,4.17
2023-05-12T02:38:28.822Z,4.00
2023-05-12T02:40:57.208Z,4.63
2023-05-12T02:43:25.527Z,4.13
2023-05-12T02:45:54.891Z,4.93
2023-05-12T02:48:23.314Z,3.70
2023-05-12T02:50:51.733Z,5.00
2023-05-12T02:53:21.479Z,4.40
2023-05-12T02:55:49.930Z,4.90
2023-05-12T02:58:19.948Z,4.33
2023-05-12T03:00:52.086Z,5.17
2023-05-12T03:03:28.690Z,5.53
2023-05-12T03:05:57.197Z,4.53
2023-05-12T03:08:28.276Z,4.20
2023-05-12T03:10:56.771Z,5.00
2023-05-12T03:13:25.159Z,5.37
2023-05-12T03:15:53.539Z,5.53
2023-05-12T03:18:22.115Z,4.53
2023-05-12T03:20:50.579Z,4.70
2023-05-12T03:23:19.055Z,5.23
2023-05-12T03:25:48.996Z,4.80
2023-05-12T03:28:17.535Z,3.93
2023-05-12T03:30:46.078Z,4.27
2023-05-12T03:33:14.454Z,4.33
2023-05-12T03:35:43.029Z,4.17
2023-05-12T03:38:12.504Z,5.17
2023-05-12T03:40:41.212Z,4.53
2023-05-12T03:43:11.361Z,5.33
2023-05-12T03:45:39.840Z,4.33
2023-05-12T03:48:08.298Z,5.07
2023-05-12T03:50:36.734Z,4.80
2023-05-12T03:53:05.377Z,5.57
2023-05-12T03:55:34.015Z,4.63
2023-05-12T03:58:02.788Z,5.40
2023-05-12T04:00:32.947Z,4.80
2023-05-12T04:03:01.624Z,5.57
2023-05-12T04:05:30.072Z,3.87
2023-05-12T04:08:03.800Z,5.10
2023-05-12T04:10:32.658Z,3.90
2023-05-12T04:13:01.661Z,4.70
2023-05-12T04:15:32.326Z,5.10
2023-05-12T04:18:01.119Z,5.43
2023-05-12T04:20:29.593Z,4.57
2023-05-12T04:22:58.088Z,4.70
2023-05-12T04:25:26.984Z,4.07
2023-05-12T04:27:57.764Z,5.57
2023-05-12T04:30:26.202Z,4.67
2023-05-12T04:32:56.367Z,3.83
2023-05-12T04:35:24.894Z,5.50
2023-05-12T04:37:53.457Z,4.73
2023-05-12T04:40:22.368Z,4.13
2023-05-12T04:42:50.943Z,5.00
2023-05-12T04:45:19.740Z,3.60
2023-05-12T04:47:48.732Z,3.53
2023-05-12T04:50:18.668Z,4.10
2023-05-12T04:52:47.182Z,4.10
2023-05-12T04:55:15.775Z,4.90
2023-05-12T04:57:44.274Z,3.93
2023-05-12T05:00:13.381Z,4.73
2023-05-12T05:02:42.209Z,4.70
2023-05-12T05:05:11.880Z,3.50
2023-05-12T05:07:47.548Z,4.40
2023-05-12T05:10:15.933Z,4.30
2023-05-12T05:12:44.394Z,3.73
2023-05-12T05:15:13.211Z,4.07
2023-05-12T05:17:43.168Z,2.97
2023-05-12T05:20:12.604Z,3.53
2023-05-12T05:22:43.470Z,3.47
2023-05-12T05:25:14.174Z,3.80
2023-05-12T05:27:42.759Z,3.20
2023-05-12T05:30:11.890Z,3.87
2023-05-12T05:32:40.754Z,4.33
2023-05-12T05:35:09.623Z,3.40
2023-05-12T05:37:38.217Z,3.10
2023-05-12T05:40:07.770Z,2.80
2023-05-12T05:42:37.627Z,3.57
2023-05-12T05:45:06.736Z,3.27
2023-05-12T05:47:50.163Z,3.07
2023-05-12T05:50:18.939Z,3.40
2023-05-12T05:52:47.510Z,3.20
2023-05-12T05:55:15.924Z,3.60
2023-05-12T05:57:45.838Z,3.63
2023-05-12T06:00:15.983Z,3.07
2023-05-12T06:02:45.181Z,2.60
2023-05-12T06:05:14.655Z,3.43
2023-05-12T06:07:43.260Z,2.90
2023-05-12T06:10:12.156Z,3.70
2023-05-12T06:12:41.675Z,3.80
2023-05-12T06:15:13.397Z,3.40
2023-05-12T06:17:42.128Z,3.67
2023-05-12T06:20:11.365Z,3.60
2023-05-12T06:22:39.734Z,3.00
2023-05-12T06:25:08.793Z,2.70
2023-05-12T06:27:37.258Z,2.90
2023-05-12T06:30:06.059Z,4.07
2023-05-12T06:32:36.043Z,3.47
2023-05-12T06:35:04.595Z,3.13
2023-05-12T06:37:33.191Z,3.33
2023-05-12T06:40:05.846Z,3.30
2023-05-12T06:42:34.315Z,3.17
2023-05-12T06:45:09.753Z,3.10
2023-05-12T06:47:42.124Z,4.03
2023-05-12T06:50:13.175Z,2.80
2023-05-12T06:52:41.833Z,2.80
2023-05-12T06:55:19.889Z,3.33
2023-05-12T06:57:59.139Z,3.70
2023-05-12T07:00:27.875Z,3.20
2023-05-12T07:02:57.824Z,2.27
2023-05-12T07:05:29.156Z,1.90
2023-05-12T07:07:57.737Z,1.57
2023-05-12T07:10:26.379Z,1.80
2023-05-12T07:13:03.281Z,1.77
2023-05-12T07:15:34.416Z,2.47
2023-05-12T07:18:04.316Z,2.30
2023-05-12T07:20:32.588Z,1.83
2023-05-12T07:23:00.931Z,2.03
2023-05-12T07:25:33.076Z,2.40
2023-05-12T07:28:01.494Z,2.37
2023-05-12T07:30:29.815Z,1.63
2023-05-12T07:32:58.864Z,1.63
2023-05-12T07:35:28.987Z,2.07
2023-05-12T07:37:57.312Z,2.33
2023-05-12T07:40:25.981Z,1.70
2023-05-12T07:43:00.274Z,1.60
2023-05-12T07:45:45.178Z,1.80
2023-05-12T07:48:17.982Z,2.10
2023-05-12T07:50:47.904Z,1.53
2023-05-12T07:53:25.563Z,1.60
2023-05-12T07:55:54.083Z,1.83
2023-05-12T07:58:24.205Z,2.10
2023-05-12T08:00:54.552Z,1.50
2023-05-12T08:03:29.272Z,1.30
2023-05-12T08:05:59.478Z,1.40
2023-05-12T08:08:34.381Z,1.27
2023-05-12T08:11:03.064Z,1.57
2023-05-12T08:13:31.616Z,1.90
2023-05-12T08:16:11.560Z,1.13
2023-05-12T08:18:40.338Z,1.27
2023-05-12T08:21:10.263Z,1.50
2023-05-12T08:23:38.995Z,1.40
2023-05-12T08:26:12.905Z,1.67
2023-05-12T08:28:54.068Z,1.73
2023-05-12T08:31:48.856Z,1.30
2023-05-12T08:37:23.369Z,1.60
2023-05-12T08:39:53.933Z,1.90
2023-05-12T08:42:42.188Z,1.53
2023-05-12T08:45:18.399Z,1.57
2023-05-12T08:48:24.634Z,1.20
2023-05-12T08:50:56.683Z,1.10
2023-05-12T08:53:49.326Z,1.93
2023-05-12T08:58:53.656Z,1.10
2023-05-12T09:01:23.031Z,1.17
2023-05-12T09:03:53.612Z,1.07
2023-05-12T09:06:22.104Z,1.00
2023-05-12T09:08:51.838Z,1.20
2023-05-12T09:11:22.922Z,0.80
2023-05-12T09:13:54.621Z,1.00
2023-05-12T09:16:25.260Z,0.90
2023-05-12T09:18:54.536Z,0.90
2023-05-12T09:21:23.240Z,1.50
2023-05-12T09:23:55.476Z,1.40
2023-05-12T09:26:25.964Z,0.80
2023-05-12T09:28:55.334Z,1.30
2023-05-12T09:31:24.435Z,1.00
2023-05-12T09:33:53.831Z,1.30
2023-05-12T09:36:23.447Z,0.70
2023-05-12T09:39:01.753Z,1.50
2023-05-12T09:41:31.742Z,1.33
2023-05-12T09:44:02.132Z,1.00
2023-05-12T09:46:31.033Z,0.90
2023-05-12T09:48:59.985Z,1.20
2023-05-12T09:51:29.370Z,1.23
2023-05-12T09:54:05.718Z,0.87
2023-05-12T09:56:39.132Z,1.00
2023-05-12T09:59:08.522Z,0.87
2023-05-12T10:01:37.319Z,1.10
2023-05-12T10:04:06.931Z,0.90
2023-05-12T10:06:40.050Z,0.80
2023-05-12T10:09:11.421Z,0.80
2023-05-12T10:11:45.953Z,0.90
2023-05-12T10:14:14.433Z,0.60
2023-05-12T10:16:43.408Z,1.10
2023-05-12T10:19:12.516Z,0.80
2023-05-12T10:21:49.706Z,1.00
2023-05-12T10:24:18.799Z,1.30
2023-05-12T10:26:52.829Z,1.30
2023-05-12T10:29:21.576Z,0.77
2023-05-12T10:31:53.122Z,0.90
2023-05-12T10:34:23.369Z,0.70
2023-05-12T10:36:54.178Z,0.50
2023-05-12T10:39:22.658Z,0.50
2023-05-12T10:42:02.534Z,0.60
2023-05-12T10:44:31.243Z,1.03
2023-05-12T10:47:00.552Z,0.63
2023-05-12T10:49:38.391Z,0.67
2023-05-12T10:52:07.613Z,0.50
2023-05-12T10:54:40.566Z,0.60
2023-05-12T10:57:19.229Z,0.67
2023-05-12T10:59:52.093Z,0.67
2023-05-12T11:02:23.588Z,0.50
2023-05-12T11:04:54.592Z,0.70
2023-05-12T11:07:24.890Z,0.60
2023-05-12T11:09:59.163Z,0.93
2023-05-12T11:12:33.374Z,1.03
2023-05-12T11:15:07.305Z,0.97
2023-05-12T11:17:42.165Z,0.90
2023-05-12T11:20:12.304Z,0.90
2023-05-12T11:22:43.678Z,1.10
2023-05-12T11:25:12.868Z,1.13
2023-05-12T11:27:52.625Z,1.20
2023-05-12T11:30:27.558Z,1.03
2023-05-12T11:33:03.001Z,1.40
2023-05-12T11:35:32.322Z,1.20
2023-05-12T11:38:02.857Z,1.00
2023-05-12T11:40:33.193Z,1.90
2023-05-12T11:43:12.989Z,1.27
2023-05-12T11:45:41.454Z,1.30
2023-05-12T11:48:13.159Z,1.30
2023-05-12T11:50:42.829Z,1.10
2023-05-12T11:53:15.238Z,1.00
2023-05-12T11:55:50.382Z,1.27
2023-05-12T11:58:22.947Z,0.93
2023-05-12T12:00:54.146Z,0.90
2023-05-12T12:03:22.842Z,1.70
2023-05-12T12:06:00.329Z,1.13
2023-05-12T12:08:29.334Z,0.90
2023-05-12T12:10:58.005Z,1.20
2023-05-12T12:13:28.220Z,0.90
2023-05-12T12:16:00.118Z,1.40
2023-05-12T12:18:34.658Z,1.40
2023-05-12T12:21:04.103Z,1.10
2023-05-12T12:23:43.846Z,1.40
2023-05-12T12:26:20.820Z,1.37
2023-05-12T12:28:51.635Z,1.20
2023-05-12T12:31:20.218Z,1.03
2023-05-12T12:33:48.796Z,1.43
2023-05-12T12:36:17.640Z,1.50
2023-05-12T12:38:48.565Z,1.20
2023-05-12T12:41:17.628Z,0.80
2023-05-12T12:43:46.444Z,1.53
2023-05-12T12:46:18.686Z,1.60
2023-05-12T12:48:47.385Z,1.67
2023-05-12T12:51:15.843Z,1.40
2023-05-12T12:53:45.767Z,1.87
2023-05-12T12:56:15.895Z,1.43
2023-05-12T12:58:44.336Z,1.73
2023-05-12T13:01:14.991Z,1.53
2023-05-12T13:03:46.467Z,1.90
2023-05-12T13:06:15.390Z,2.60
2023-05-12T13:08:45.677Z,1.83
2023-05-12T13:11:14.154Z,2.50
2023-05-12T13:13:42.931Z,2.47
2023-05-12T13:16:11.312Z,1.80
2023-05-12T13:18:39.710Z,2.53
2023-05-12T13:21:09.606Z,2.80
2023-05-12T13:23:37.943Z,3.20
2023-05-12T13:26:06.393Z,3.53
2023-05-12T13:28:35.034Z,3.93
2023-05-12T13:31:03.602Z,3.43
2023-05-12T13:33:32.617Z,3.40
2023-05-12T13:36:01.480Z,3.43
2023-05-12T13:38:32.306Z,3.30
2023-05-12T13:41:00.611Z,3.47
2023-05-12T13:43:29.074Z,2.50
2023-05-12T13:45:57.314Z,3.30
2023-05-12T13:48:32.048Z,3.53
2023-05-12T13:51:00.554Z,3.60
2023-05-12T13:53:28.772Z,3.70
2023-05-12T13:55:59.679Z,3.30
2023-05-12T13:58:27.913Z,3.17
2023-05-12T14:00:56.510Z,2.53
2023-05-12T14:03:24.833Z,3.40
2023-05-12T14:05:53.324Z,3.33
2023-05-12T14:08:21.937Z,2.63
2023-05-12T14:10:50.351Z,2.40
2023-05-12T14:13:20.831Z,2.47
2023-05-12T14:15:50.283Z,2.93
2023-05-12T14:18:18.988Z,2.37
2023-05-12T14:20:47.625Z,2.73
2023-05-12T14:23:16.743Z,2.60
2023-05-12T14:25:45.936Z,3.40
2023-05-12T14:28:16.118Z,3.17
2023-05-12T14:30:46.198Z,2.33
2023-05-12T14:33:14.580Z,1.97
2023-05-12T14:35:44.702Z,2.07
2023-05-12T14:38:16.961Z,2.50
2023-05-12T14:40:46.323Z,2.90
2023-05-12T14:43:26.682Z,2.70
2023-05-12T14:45:56.510Z,2.67
2023-05-12T14:48:26.237Z,3.03
2023-05-12T14:50:54.885Z,3.07
2023-05-12T14:53:23.510Z,3.20
2023-05-12T14:55:52.233Z,2.60
2023-05-12T14:58:21.640Z,3.63
2023-05-12T15:00:50.176Z,2.17
2023-05-12T15:03:21.338Z,2.63
2023-05-12T15:06:06.389Z,2.87
2023-05-12T15:08:35.899Z,2.40
2023-05-12T15:11:04.381Z,2.33
2023-05-12T15:13:33.184Z,2.70
2023-05-12T15:16:03.037Z,2.43
2023-05-12T15:18:33.735Z,2.13
2023-05-12T15:21:02.294Z,3.07
2023-05-12T15:23:31.089Z,2.60
2023-05-12T15:26:06.919Z,2.33
2023-05-12T15:28:43.675Z,3.87
2023-05-12T15:31:12.814Z,3.10
2023-05-12T15:33:42.671Z,2.20
2023-05-12T15:36:13.704Z,2.80
2023-05-12T15:38:43.416Z,3.27
2023-05-12T15:41:12.064Z,3.30
2023-05-12T15:43:43.420Z,2.50
2023-05-12T15:46:12.020Z,2.47
2023-05-12T15:48:42.427Z,2.60
2023-05-12T15:51:11.273Z,3.10
2023-05-12T15:53:39.619Z,2.67
2023-05-12T15:56:09.033Z,3.40
2023-05-12T15:58:37.596Z,2.80
2023-05-12T16:01:06.758Z,2.50
2023-05-12T16:03:35.145Z,3.17
2023-05-12T16:06:06.979Z,3.03
2023-05-12T16:08:35.417Z,3.00
2023-05-12T16:11:04.382Z,3.30
2023-05-12T16:13:38.694Z,2.80
2023-05-12T16:16:08.049Z,2.33
2023-05-12T16:18:40.910Z,2.83
2023-05-12T16:21:11.753Z,2.20
2023-05-12T16:23:41.922Z,2.50
2023-05-12T16:26:10.773Z,2.13
2023-05-12T16:28:42.930Z,1.73
2023-05-12T16:31:12.749Z,3.00
2023-05-12T16:33:48.753Z,1.47
2023-05-12T16:36:19.745Z,1.53
2023-05-12T16:38:48.603Z,1.83
2023-05-12T16:41:16.998Z,1.63
2023-05-12T16:43:45.505Z,1.43
2023-05-12T16:46:14.048Z,1.30
2023-05-12T16:48:42.649Z,1.60
2023-05-12T16:51:11.881Z,1.10
2023-05-12T16:53:42.105Z,1.50
2023-05-12T16:56:10.849Z,1.43
2023-05-12T16:58:40.675Z,1.23
2023-05-12T17:01:10.831Z,0.90
2023-05-12T17:03:39.735Z,1.57
2023-05-12T17:06:09.473Z,1.60
2023-05-12T17:08:38.068Z,1.40
2023-05-12T17:11:08.234Z,1.87
2023-05-12T17:13:39.522Z,1.93
2023-05-12T17:16:09.434Z,1.27
2023-05-12T17:21:11.640Z,1.90
2023-05-12T17:23:40.962Z,2.00
2023-05-12T17:26:10.769Z,1.53
2023-05-12T17:28:39.222Z,1.77
2023-05-12T17:31:08.646Z,1.53
2023-05-12T17:33:37.417Z,2.27
2023-05-12T17:36:12.447Z,1.60
2023-05-12T17:38:41.814Z,1.70
2023-05-12T17:41:11.668Z,2.10
2023-05-12T17:43:40.166Z,1.70
2023-05-12T17:46:09.137Z,1.67
2023-05-12T17:48:38.665Z,1.50
2023-05-12T17:51:07.887Z,1.60
2023-05-12T17:53:36.698Z,1.70
2023-05-12T17:56:05.233Z,1.77
2023-05-12T17:58:35.156Z,1.50
2023-05-12T18:01:03.653Z,1.70
2023-05-12T18:03:32.256Z,2.03
2023-05-12T18:06:00.584Z,1.50
2023-05-12T18:08:29.031Z,1.53
2023-05-12T18:10:57.828Z,1.40
2023-05-12T18:13:26.180Z,1.77
2023-05-12T18:15:56.652Z,1.67
2023-05-12T18:18:26.085Z,2.03
2023-05-12T18:20:54.723Z,1.60
2023-05-12T18:23:23.215Z,1.73
2023-05-12T18:25:51.511Z,1.90
2023-05-12T18:28:20.189Z,2.13
2023-05-12T18:30:48.498Z,1.70
2023-05-12T18:33:18.321Z,1.77
2023-05-12T18:35:47.572Z,1.80
2023-05-12T18:38:16.128Z,1.63
2023-05-12T18:40:44.936Z,2.20
2023-05-12T18:43:13.397Z,2.10
2023-05-12T18:45:42.348Z,1.70
2023-05-12T18:48:11.638Z,1.70
2023-05-12T18:50:41.552Z,1.80
2023-05-12T18:53:18.703Z,2.00
2023-05-12T18:55:50.059Z,1.90
2023-05-12T18:58:20.809Z,1.40
2023-05-12T19:00:50.059Z,1.80
2023-05-12T19:03:24.833Z,1.23
2023-05-12T19:05:55.796Z,1.60
2023-05-12T19:08:24.328Z,1.90
2023-05-12T19:10:52.945Z,1.70
2023-05-12T19:13:28.999Z,1.47
2023-05-12T19:15:57.779Z,2.00
2023-05-12T19:18:33.020Z,1.97
2023-05-12T19:21:03.949Z,2.40
2023-05-12T19:23:33.048Z,2.40
2023-05-12T19:26:02.274Z,2.20
2023-05-12T19:28:30.944Z,2.33
2023-05-12T19:30:59.501Z,2.43
2023-05-12T19:33:29.343Z,2.17
2023-05-12T19:35:58.076Z,2.33
2023-05-12T19:38:28.260Z,2.60
2023-05-12T19:40:57.027Z,2.73
2023-05-12T19:43:25.810Z,1.90
2023-05-12T19:45:54.427Z,2.10
2023-05-12T19:48:22.788Z,2.57
2023-05-12T19:50:55.367Z,3.10
2023-05-12T19:53:24.218Z,3.03
2023-05-12T19:55:56.900Z,3.47
2023-05-12T19:58:25.417Z,2.90
2023-05-12T20:00:56.660Z,2.60
2023-05-12T20:03:25.427Z,3.10
2023-05-12T20:05:54.004Z,3.20
2023-05-12T20:08:22.732Z,2.43
2023-05-12T20:10:51.611Z,2.70
2023-05-12T20:13:21.799Z,3.10
2023-05-12T20:15:50.399Z,2.43
2023-05-12T20:18:18.879Z,2.50
2023-05-12T20:20:47.620Z,3.37
2023-05-12T20:23:16.172Z,2.77
2023-05-12T20:28:42.561Z,3.43
2023-05-12T20:31:11.056Z,3.10
2023-05-12T20:33:39.485Z,2.70
2023-05-12T20:36:08.194Z,2.97
2023-05-12T20:38:36.794Z,2.93
2023-05-12T20:41:06.819Z,3.07
2023-05-12T20:43:35.915Z,2.87
2023-05-12T20:46:07.336Z,2.73
2023-05-12T20:48:36.444Z,3.43
2023-05-12T20:51:17.360Z,2.93
2023-05-12T20:53:46.105Z,3.37
2023-05-12T20:56:19.199Z,3.07
2023-05-12T20:58:47.698Z,3.07
2023-05-12T21:01:25.597Z,3.73
2023-05-12T21:03:54.136Z,3.67
2023-05-12T21:06:23.156Z,3.10
2023-05-12T21:08:51.994Z,3.07
2023-05-12T21:11:21.386Z,3.87
2023-05-12T21:13:51.081Z,2.97
2023-05-12T21:16:34.759Z,3.20
2023-05-12T21:19:04.838Z,2.80
2023-05-12T21:21:33.942Z,2.77
2023-05-12T21:24:02.475Z,2.90
2023-05-12T21:26:31.068Z,2.30
2023-05-12T21:29:02.858Z,2.70
2023-05-12T21:31:32.153Z,2.97
2023-05-12T21:34:00.671Z,3.10
2023-05-12T21:36:31.697Z,3.07
2023-05-12T21:39:00.411Z,3.00
2023-05-12T21:41:28.818Z,2.67
2023-05-12T21:43:57.670Z,3.23
2023-05-12T21:46:41.283Z,2.87
2023-05-12T21:49:09.609Z,2.87
2023-05-12T21:51:39.909Z,2.93
2023-05-12T21:54:10.528Z,3.10
2023-05-12T21:56:39.366Z,2.57
2023-05-12T21:59:09.115Z,2.57
2023-05-12T22:01:37.523Z,3.17
2023-05-12T22:04:06.307Z,3.03
2023-05-12T22:06:35.089Z,2.23
2023-05-12T22:09:05.692Z,2.87
2023-05-12T22:11:34.688Z,2.50
2023-05-12T22:14:03.307Z,2.83
2023-05-12T22:16:41.265Z,2.43
2023-05-12T22:19:11.669Z,1.80
2023-05-12T22:21:40.266Z,2.40
2023-05-12T22:24:11.161Z,2.60
2023-05-12T22:26:39.605Z,2.70
2023-05-12T22:29:08.196Z,2.53
2023-05-12T22:31:36.777Z,1.77
2023-05-12T22:34:05.324Z,2.00
2023-05-12T22:36:34.970Z,2.73
2023-05-12T22:39:04.231Z,2.30
2023-05-12T22:41:34.124Z,2.10
2023-05-12T22:44:02.454Z,2.80
2023-05-12T22:46:30.873Z,2.60
2023-05-12T22:48:59.328Z,2.93
2023-05-12T22:51:27.866Z,2.67
2023-05-12T22:53:56.385Z,2.23
2023-05-12T22:56:24.724Z,2.80
2023-05-12T22:58:54.748Z,2.33
2023-05-12T23:01:23.554Z,2.40
2023-05-12T23:03:52.526Z,2.90
2023-05-12T23:06:21.333Z,2.73
2023-05-12T23:08:49.988Z,4.00
2023-05-12T23:11:18.712Z,3.53
2023-05-12T23:13:47.186Z,3.33
2023-05-12T23:16:17.675Z,3.30
2023-05-12T23:18:46.349Z,3.00
2023-05-12T23:21:14.688Z,2.57
2023-05-12T23:23:43.136Z,2.03
2023-05-12T23:26:11.725Z,3.70
2023-05-12T23:28:43.629Z,2.97
2023-05-12T23:31:12.641Z,3.53
2023-05-12T23:33:42.900Z,3.30
2023-05-12T23:36:13.570Z,3.10
2023-05-12T23:38:42.007Z,3.73
2023-05-12T23:41:10.487Z,3.17
2023-05-12T23:43:39.231Z,2.90
2023-05-12T23:46:08.186Z,3.63
2023-05-12T23:48:37.321Z,3.50
2023-05-12T23:51:07.309Z,3.80
2023-05-12T23:53:35.794Z,3.50
2023-05-12T23:56:04.377Z,3.20
2023-05-12T23:58:32.819Z,3.20
